Time;durP1;ratioP1;P1;durP2;ratioP2;P2;SDS_P1;SDS_P2;PMS_P1;PMS_P2;Temp;Humidity;BMP_temperature;BMP_pressure;BME280_temperature;BME280_humidity;BME280_pressure;Samples;Min_cycle;Max_cycle;Signal;HPM_P1;HPM_P2
2022/05/27 00:01:26;;;;;;;0.43;0.43;;;16.90;99.90;;;;;;5039691;28;20222;-81
2022/05/27 00:03:52;;;;;;;0.60;0.60;;;16.90;99.90;;;;;;5038383;28;20212;-81
2022/05/27 00:06:18;;;;;;;1.27;0.30;;;16.90;99.90;;;;;;5041188;28;20181;-80
2022/05/27 00:08:44;;;;;;;0.40;0.30;;;16.90;99.90;;;;;;5039310;28;20231;-81
2022/05/27 00:11:12;;;;;;;1.20;0.50;;;16.80;99.90;;;;;;5056444;28;20174;-81
2022/05/27 00:13:38;;;;;;;0.43;0.43;;;16.80;99.90;;;;;;5039961;28;20188;-82
2022/05/27 00:16:03;;;;;;;0.40;0.30;;;16.80;99.90;;;;;;5058910;28;20682;-81
2022/05/27 00:18:29;;;;;;;0.43;0.33;;;16.70;99.90;;;;;;5043588;28;20204;-81
2022/05/27 00:20:56;;;;;;;0.20;0.20;;;16.70;99.90;;;;;;5041351;28;20186;-81
2022/05/27 00:23:21;;;;;;;0.30;0.30;;;16.60;99.90;;;;;;5060711;28;20205;-81
2022/05/27 00:25:47;;;;;;;0.97;0.30;;;16.60;99.90;;;;;;5060161;28;20186;-81
2022/05/27 00:28:13;;;;;;;0.67;0.33;;;16.60;99.90;;;;;;5042692;28;20207;-81
2022/05/27 00:30:39;;;;;;;3.60;0.30;;;16.60;99.90;;;;;;5042482;28;20725;-81
2022/05/27 00:33:05;;;;;;;0.47;0.47;;;16.60;99.90;;;;;;5061098;28;20254;-81
2022/05/27 00:35:31;;;;;;;0.20;0.20;;;16.50;99.90;;;;;;5060784;28;20192;-81
2022/05/27 00:37:57;;;;;;;0.30;0.30;;;16.50;99.90;;;;;;5042527;28;20210;-81
2022/05/27 00:40:24;;;;;;;0.20;0.20;;;16.40;99.90;;;;;;5043287;28;20570;-81
2022/05/27 00:42:49;;;;;;;0.50;0.50;;;16.40;99.90;;;;;;5040817;28;20893;-81
2022/05/27 00:45:21;;;;;;;0.40;0.40;;;16.40;99.90;;;;;;5060177;28;20267;-81
2022/05/27 00:47:51;;;;;;;0.20;0.20;;;16.40;99.90;;;;;;5058979;28;20308;-81
2022/05/27 00:50:19;;;;;;;0.10;0.10;;;16.40;99.90;;;;;;5060380;28;20375;-81
2022/05/27 00:52:47;;;;;;;0.83;0.63;;;16.40;99.90;;;;;;5042145;28;20232;-81
2022/05/27 00:55:20;;;;;;;0.20;0.20;;;16.40;99.90;;;;;;5058962;28;20233;-81
2022/05/27 00:58:03;;;;;;;0.43;0.33;;;16.40;99.90;;;;;;5058810;28;20216;-81
2022/05/27 01:00:28;;;;;;;0.30;0.30;;;16.30;99.90;;;;;;5057913;28;20180;-81
2022/05/27 01:02:55;;;;;;;0.10;0.10;;;16.40;99.90;;;;;;5061097;28;20224;-81
2022/05/27 01:05:23;;;;;;;0.53;0.50;;;16.40;99.90;;;;;;5041091;28;20197;-81
2022/05/27 01:08:02;;;;;;;0.20;0.20;;;16.30;99.90;;;;;;5058374;28;20287;-81
2022/05/27 01:10:44;;;;;;;0.30;0.30;;;16.30;99.90;;;;;;5041294;28;20199;-81
2022/05/27 01:13:28;;;;;;;0.20;0.20;;;16.30;99.90;;;;;;5059214;28;20180;-81
2022/05/27 01:15:56;;;;;;;0.20;0.20;;;16.30;99.90;;;;;;5059468;28;20277;-81
2022/05/27 01:21:37;;;;;;;0.30;0.30;;;16.20;99.90;;;;;;5047897;28;20220;-81
2022/05/27 01:24:41;;;;;;;0.10;0.10;;;16.20;99.90;;;;;;5042267;28;20208;-81
2022/05/27 01:27:29;;;;;;;0.20;0.20;;;16.20;99.90;;;;;;5042600;28;20238;-81
2022/05/27 01:30:17;;;;;;;0.17;0.17;;;16.00;99.90;;;;;;5057473;28;20177;-81
2022/05/27 01:32:50;;;;;;;0.10;0.10;;;16.00;99.90;;;;;;5039211;28;20655;-80
2022/05/27 01:35:40;;;;;;;0.53;0.37;;;16.00;99.90;;;;;;5058234;28;20226;-81
2022/05/27 01:38:15;;;;;;;0.10;0.10;;;16.10;99.90;;;;;;5041503;28;20216;-81
2022/05/27 01:40:47;;;;;;;0.20;0.20;;;16.10;99.90;;;;;;5040662;28;20198;-81
2022/05/27 01:43:22;;;;;;;0.23;0.23;;;16.10;99.90;;;;;;5057600;28;20971;-81
2022/05/27 01:46:13;;;;;;;0.20;0.20;;;16.10;99.90;;;;;;5074943;28;20200;-81
2022/05/27 01:48:46;;;;;;;1.23;0.50;;;16.20;99.90;;;;;;5056925;28;20292;-81
2022/05/27 01:51:18;;;;;;;0.20;0.20;;;16.20;99.90;;;;;;5058688;28;20675;-81
2022/05/27 01:54:00;;;;;;;0.20;0.10;;;16.10;99.90;;;;;;5057964;28;20184;-81
2022/05/27 01:56:44;;;;;;;0.10;0.10;;;16.10;99.90;;;;;;5039062;28;20603;-81
2022/05/27 01:59:35;;;;;;;0.20;0.20;;;16.20;99.90;;;;;;5057137;28;20231;-81
2022/05/27 02:02:10;;;;;;;0.40;0.40;;;16.20;99.90;;;;;;5071217;28;20199;-81
2022/05/27 02:04:45;;;;;;;0.10;0.10;;;16.20;99.90;;;;;;5038496;28;20312;-81
2022/05/27 02:07:21;;;;;;;0.20;0.20;;;16.20;99.90;;;;;;5038942;28;20185;-82
2022/05/27 02:09:54;;;;;;;0.40;0.40;;;16.20;99.90;;;;;;5059958;28;20216;-81
2022/05/27 02:12:26;;;;;;;0.13;0.13;;;16.20;99.90;;;;;;5073085;28;20271;-82
2022/05/27 02:14:57;;;;;;;0.10;0.10;;;16.20;99.90;;;;;;5042049;28;20186;-81
2022/05/27 02:17:34;;;;;;;0.40;0.30;;;16.20;99.90;;;;;;5057081;28;20736;-81
2022/05/27 02:20:07;;;;;;;0.20;0.17;;;16.20;99.90;;;;;;5073416;28;20214;-81
2022/05/27 02:22:38;;;;;;;0.50;0.20;;;16.30;99.90;;;;;;5038075;28;20184;-81
2022/05/27 02:25:16;;;;;;;0.17;0.17;;;16.40;99.90;;;;;;5059574;28;20192;-81
2022/05/27 02:27:51;;;;;;;0.43;0.30;;;16.40;99.90;;;;;;5056683;28;20204;-81
2022/05/27 02:30:19;;;;;;;0.10;0.10;;;16.50;99.90;;;;;;5058487;28;21359;-81
2022/05/27 02:35:44;;;;;;;1.00;1.00;;;16.60;99.90;;;;;;5058398;28;20590;-81
2022/05/27 02:38:11;;;;;;;0.10;0.10;;;16.60;99.90;;;;;;5039726;28;20244;-81
2022/05/27 02:41:03;;;;;;;0.20;0.20;;;16.70;99.90;;;;;;5058521;28;20658;-81
2022/05/27 02:43:39;;;;;;;0.20;0.20;;;16.70;99.90;;;;;;5055431;28;20205;-81
2022/05/27 02:46:31;;;;;;;0.27;0.23;;;16.80;99.90;;;;;;5055991;28;20231;-81
2022/05/27 02:49:15;;;;;;;0.17;0.17;;;16.70;99.90;;;;;;5041483;28;20207;-82
2022/05/27 02:51:53;;;;;;;0.40;0.40;;;16.70;99.90;;;;;;5057597;28;20194;-81
2022/05/27 02:54:32;;;;;;;0.40;0.40;;;16.70;99.90;;;;;;5056528;28;20272;-81
2022/05/27 02:57:10;;;;;;;0.30;0.30;;;16.60;99.90;;;;;;5038622;28;20196;-80
2022/05/27 02:59:37;;;;;;;0.20;0.20;;;16.50;99.90;;;;;;5041142;28;20177;-81
2022/05/27 03:02:12;;;;;;;0.47;0.47;;;16.40;99.90;;;;;;5058510;28;20326;-81
2022/05/27 03:04:42;;;;;;;0.30;0.30;;;16.30;99.90;;;;;;5057983;28;20231;-81
2022/05/27 03:07:42;;;;;;;0.20;0.20;;;16.20;99.90;;;;;;5032570;28;20192;-81
2022/05/27 03:10:26;;;;;;;0.27;0.27;;;16.10;99.90;;;;;;5053938;28;20188;-81
2022/05/27 03:13:18;;;;;;;0.53;0.40;;;15.90;99.90;;;;;;5056164;28;20187;-81
2022/05/27 03:16:13;;;;;;;0.27;0.27;;;15.90;99.90;;;;;;5035931;28;20195;-81
2022/05/27 03:19:05;;;;;;;0.30;0.30;;;15.80;99.90;;;;;;5036257;28;20218;-80
2022/05/27 03:21:50;;;;;;;0.17;0.17;;;15.80;99.90;;;;;;5036324;28;20187;-81
2022/05/27 03:24:41;;;;;;;0.67;0.33;;;15.80;99.90;;;;;;5035830;28;20208;-80
2022/05/27 03:27:34;;;;;;;0.40;0.20;;;15.70;99.90;;;;;;5054351;28;20190;-81
2022/05/27 03:30:22;;;;;;;2.43;1.07;;;15.70;99.90;;;;;;5036813;28;20195;-81
2022/05/27 03:33:04;;;;;;;0.50;0.50;;;15.60;99.90;;;;;;5039348;28;20223;-80
2022/05/27 03:35:40;;;;;;;0.20;0.20;;;15.70;99.90;;;;;;5037700;28;20191;-81
2022/05/27 03:38:19;;;;;;;1.40;0.50;;;15.70;99.90;;;;;;5037739;28;20283;-81
2022/05/27 03:41:06;;;;;;;0.10;0.10;;;15.70;99.90;;;;;;5036954;28;20183;-81
2022/05/27 03:43:34;;;;;;;0.77;0.77;;;15.70;99.90;;;;;;5057363;28;20220;-81
2022/05/27 03:46:01;;;;;;;0.27;0.27;;;15.70;99.90;;;;;;5055852;28;20207;-81
2022/05/27 03:48:30;;;;;;;0.33;0.30;;;15.80;99.90;;;;;;5054148;28;20200;-80
2022/05/27 03:51:11;;;;;;;0.37;0.37;;;15.90;99.90;;;;;;5036688;28;20596;-81
2022/05/27 03:56:20;;;;;;;0.20;0.20;;;16.20;99.90;;;;;;5055817;28;20208;-81
2022/05/27 03:58:46;;;;;;;0.10;0.10;;;16.40;99.90;;;;;;5055835;28;21125;-81
2022/05/27 04:01:11;;;;;;;0.30;0.30;;;16.20;99.90;;;;;;5054656;28;20184;-81
2022/05/27 04:03:37;;;;;;;0.30;0.30;;;16.30;99.90;;;;;;5035947;28;20243;-81
2022/05/27 04:06:03;;;;;;;2.13;0.30;;;16.30;99.90;;;;;;5054807;28;20196;-81
2022/05/27 04:08:28;;;;;;;0.20;0.20;;;16.30;99.90;;;;;;5033812;28;20221;-80
2022/05/27 04:10:54;;;;;;;0.10;0.10;;;16.30;99.90;;;;;;5055578;28;20249;-81
2022/05/27 04:13:20;;;;;;;1.27;0.43;;;16.30;99.90;;;;;;5038447;28;20199;-81
2022/05/27 04:15:45;;;;;;;0.37;0.20;;;16.50;99.90;;;;;;5034515;28;20278;-80
2022/05/27 04:18:11;;;;;;;0.47;0.33;;;16.50;99.90;;;;;;5055157;28;20245;-81
2022/05/27 04:20:36;;;;;;;0.27;0.27;;;16.60;99.90;;;;;;5055361;28;20223;-81
2022/05/27 04:23:02;;;;;;;0.17;0.17;;;16.70;99.90;;;;;;5053530;28;20212;-81
2022/05/27 04:25:27;;;;;;;0.20;0.20;;;16.60;99.90;;;;;;5057002;28;20946;-81
2022/05/27 04:27:53;;;;;;;0.10;0.10;;;16.60;99.90;;;;;;5055680;28;21026;-81
2022/05/27 04:30:19;;;;;;;0.50;0.43;;;16.70;99.90;;;;;;5055343;28;20222;-81
2022/05/27 04:32:45;;;;;;;0.20;0.20;;;16.80;99.90;;;;;;5054438;28;20200;-81
2022/05/27 04:35:10;;;;;;;0.10;0.10;;;16.90;99.90;;;;;;5037928;28;20194;-81
2022/05/27 04:37:36;;;;;;;0.40;0.40;;;16.90;99.90;;;;;;5055921;28;20281;-80
2022/05/27 04:40:03;;;;;;;1.00;0.53;;;17.10;99.90;;;;;;5037903;28;20200;-81
2022/05/27 04:42:29;;;;;;;0.13;0.13;;;17.10;99.90;;;;;;5055330;28;20194;-81
2022/05/27 04:44:55;;;;;;;0.23;0.23;;;17.10;99.90;;;;;;5038427;28;20242;-81
2022/05/27 04:47:21;;;;;;;0.20;0.20;;;17.10;99.90;;;;;;5036890;28;20193;-81
2022/05/27 04:49:53;;;;;;;0.23;0.23;;;17.20;99.90;;;;;;5036792;28;20669;-81
2022/05/27 04:52:25;;;;;;;0.10;0.10;;;17.20;99.90;;;;;;5054237;28;20181;-81
2022/05/27 04:54:52;;;;;;;0.30;0.30;;;17.30;99.90;;;;;;5057735;28;20185;-81
2022/05/27 04:57:34;;;;;;;0.30;0.30;;;17.40;99.90;;;;;;5057306;28;20207;-81
2022/05/27 05:00:02;;;;;;;0.27;0.27;;;17.40;99.90;;;;;;5057173;28;20173;-81
2022/05/27 05:02:28;;;;;;;0.40;0.40;;;17.40;99.90;;;;;;5073483;28;20186;-81
2022/05/27 05:04:54;;;;;;;0.17;0.17;;;17.40;99.90;;;;;;5044257;28;20189;-81
2022/05/27 05:07:22;;;;;;;0.17;0.17;;;17.30;99.90;;;;;;5059552;28;20185;-81
2022/05/27 05:09:48;;;;;;;0.20;0.20;;;17.40;99.90;;;;;;5061234;28;20194;-81
2022/05/27 05:12:14;;;;;;;0.10;0.10;;;17.40;99.90;;;;;;5058664;28;20587;-82
2022/05/27 05:14:40;;;;;;;0.60;0.30;;;17.40;99.90;;;;;;5038167;28;20196;-79
2022/05/27 05:17:07;;;;;;;0.30;0.30;;;17.50;99.90;;;;;;5055008;28;20197;-80
2022/05/27 05:19:33;;;;;;;0.33;0.33;;;17.50;99.90;;;;;;5038195;28;20190;-79
2022/05/27 05:21:59;;;;;;;0.10;0.10;;;17.50;99.90;;;;;;5054801;28;20724;-79
2022/05/27 05:24:24;;;;;;;0.30;0.30;;;17.60;99.90;;;;;;5051872;28;20225;-78
2022/05/27 05:26:50;;;;;;;0.20;0.20;;;17.50;99.90;;;;;;5052120;28;20247;-83
2022/05/27 05:29:16;;;;;;;0.40;0.20;;;17.50;99.90;;;;;;5052475;28;20205;-83
2022/05/27 05:31:42;;;;;;;0.20;0.20;;;17.40;99.90;;;;;;5032899;28;20189;-83
2022/05/27 05:34:07;;;;;;;0.20;0.20;;;17.30;99.90;;;;;;5034969;28;20193;-83
2022/05/27 05:36:34;;;;;;;0.13;0.13;;;17.30;99.90;;;;;;5038940;28;20196;-82
2022/05/27 05:39:01;;;;;;;0.30;0.30;;;17.30;99.90;;;;;;5052772;28;20212;-82
2022/05/27 05:41:28;;;;;;;0.40;0.40;;;17.30;99.90;;;;;;5055505;28;20718;-83
2022/05/27 05:43:54;;;;;;;0.20;0.10;;;17.30;99.90;;;;;;5039746;28;20886;-82
2022/05/27 05:46:20;;;;;;;0.20;0.20;;;17.30;99.90;;;;;;5038426;28;20554;-82
2022/05/27 05:48:45;;;;;;;0.40;0.40;;;17.30;99.90;;;;;;5038621;28;20216;-82
2022/05/27 05:51:11;;;;;;;0.43;0.43;;;17.40;99.90;;;;;;5040059;28;20184;-82
2022/05/27 05:53:36;;;;;;;0.20;0.20;;;17.40;99.90;;;;;;5035776;28;20221;-83
2022/05/27 05:56:02;;;;;;;0.10;0.10;;;17.30;99.90;;;;;;5055882;28;20209;-83
2022/05/27 05:58:27;;;;;;;0.20;0.20;;;17.20;99.90;;;;;;5036894;28;20204;-83
2022/05/27 06:00:53;;;;;;;4.13;0.40;;;17.30;99.90;;;;;;5057839;28;20209;-82
2022/05/27 06:03:19;;;;;;;0.10;0.10;;;17.30;99.90;;;;;;5035409;28;20213;-83
2022/05/27 06:05:47;;;;;;;0.13;0.13;;;17.40;99.90;;;;;;5053666;28;20224;-83
2022/05/27 06:08:14;;;;;;;0.10;0.10;;;17.30;99.90;;;;;;5038509;28;20732;-82
2022/05/27 06:10:41;;;;;;;0.30;0.30;;;17.30;99.90;;;;;;5056620;28;20161;-83
2022/05/27 06:13:07;;;;;;;0.40;0.40;;;17.20;99.90;;;;;;5036208;28;20236;-82
2022/05/27 06:15:32;;;;;;;0.20;0.20;;;17.20;99.90;;;;;;5055149;28;20212;-82
2022/05/27 06:17:59;;;;;;;0.20;0.20;;;17.20;99.90;;;;;;5037783;28;20219;-82
2022/05/27 06:20:26;;;;;;;0.47;0.33;;;17.30;99.90;;;;;;5037402;28;20330;-82
2022/05/27 06:22:52;;;;;;;0.10;0.10;;;17.30;99.90;;;;;;5035797;28;20303;-82
2022/05/27 06:25:17;;;;;;;0.27;0.27;;;17.40;99.90;;;;;;5054507;28;20288;-83
2022/05/27 06:27:43;;;;;;;1.93;0.97;;;17.40;99.90;;;;;;5052612;28;20276;-83
2022/05/27 06:35:41;;;;;;;0.20;0.20;;;17.50;99.90;;;;;;5049690;28;20239;-82
2022/05/27 06:38:07;;;;;;;0.20;0.20;;;17.60;99.90;;;;;;5035669;28;20601;-82
2022/05/27 06:40:32;;;;;;;0.20;0.20;;;17.50;99.90;;;;;;5035532;28;20242;-82
2022/05/27 06:42:58;;;;;;;0.10;0.10;;;17.70;99.90;;;;;;5052784;28;20209;-78
2022/05/27 06:45:24;;;;;;;0.10;0.10;;;17.80;99.90;;;;;;5052458;28;22141;-79
2022/05/27 06:47:50;;;;;;;0.50;0.50;;;17.90;99.90;;;;;;5036683;28;20209;-79
2022/05/27 06:50:15;;;;;;;0.10;0.10;;;17.90;99.90;;;;;;5052130;28;20193;-79
2022/05/27 06:52:42;;;;;;;0.10;0.10;;;17.90;99.90;;;;;;5053204;28;20194;-79
2022/05/27 06:55:11;;;;;;;0.73;0.20;;;17.90;99.90;;;;;;5052474;28;20173;-79
2022/05/27 06:57:37;;;;;;;0.30;0.20;;;17.90;99.90;;;;;;5053641;28;20220;-79
2022/05/27 07:00:06;;;;;;;0.63;0.20;;;17.80;99.90;;;;;;5031451;28;21798;-84
2022/05/27 07:02:31;;;;;;;0.20;0.20;;;17.80;99.90;;;;;;5053411;28;20248;-82
2022/05/27 07:04:57;;;;;;;0.20;0.20;;;17.80;99.90;;;;;;5032002;28;20288;-82
2022/05/27 07:07:30;;;;;;;0.10;0.10;;;17.80;99.90;;;;;;5051331;28;20213;-84
2022/05/27 07:09:55;;;;;;;0.50;0.20;;;17.80;99.90;;;;;;5053395;28;20621;-82
2022/05/27 07:12:21;;;;;;;0.10;0.10;;;17.80;99.90;;;;;;5054313;28;20193;-83
2022/05/27 07:14:46;;;;;;;0.10;0.10;;;17.90;99.90;;;;;;5034407;28;20279;-83
2022/05/27 07:17:12;;;;;;;0.20;0.20;;;18.20;99.90;;;;;;5033877;28;21232;-84
2022/05/27 07:19:39;;;;;;;0.30;0.30;;;18.30;99.90;;;;;;5035410;28;20185;-84
2022/05/27 07:22:09;;;;;;;0.10;0.10;;;18.30;99.90;;;;;;5052970;28;20192;-83
2022/05/27 07:24:37;;;;;;;0.20;0.20;;;18.40;99.90;;;;;;5067664;28;20755;-83
2022/05/27 07:27:03;;;;;;;0.20;0.20;;;18.30;99.90;;;;;;5034877;28;20197;-83
2022/05/27 07:29:28;;;;;;;0.20;0.20;;;18.20;99.90;;;;;;5034619;28;20206;-83
2022/05/27 07:31:54;;;;;;;0.70;0.70;;;18.30;99.90;;;;;;5033479;28;20210;-83
2022/05/27 07:34:20;;;;;;;0.50;0.30;;;18.30;99.90;;;;;;5051849;28;20571;-83
2022/05/27 07:36:45;;;;;;;0.20;0.20;;;18.30;99.90;;;;;;5029287;28;20200;-84
2022/05/27 07:39:11;;;;;;;0.10;0.10;;;18.30;99.90;;;;;;5035168;28;20205;-83
2022/05/27 07:41:37;;;;;;;1.80;0.97;;;18.30;99.90;;;;;;5034464;28;20193;-83
2022/05/27 07:44:04;;;;;;;0.47;0.47;;;18.20;99.90;;;;;;5030269;28;20295;-82
2022/05/27 07:46:31;;;;;;;0.20;0.20;;;18.40;99.90;;;;;;5066731;28;20276;-83
2022/05/27 07:48:57;;;;;;;0.40;0.20;;;18.30;99.90;;;;;;5050443;28;20209;-82
2022/05/27 07:51:22;;;;;;;0.13;0.13;;;18.40;99.90;;;;;;5030054;28;20190;-83
2022/05/27 07:53:48;;;;;;;1.03;0.40;;;18.50;99.90;;;;;;5038789;28;20670;-81
2022/05/27 07:56:14;;;;;;;0.20;0.20;;;18.40;99.90;;;;;;5039276;28;20348;-81
2022/05/27 07:58:39;;;;;;;0.10;0.10;;;18.40;99.90;;;;;;5057347;28;20259;-81
2022/05/27 08:01:06;;;;;;;0.20;0.20;;;18.40;99.90;;;;;;5054204;28;20192;-81
2022/05/27 08:03:32;;;;;;;0.20;0.20;;;18.30;99.90;;;;;;5050988;28;20761;-81
2022/05/27 08:05:59;;;;;;;0.67;0.30;;;18.30;99.90;;;;;;5053761;28;20194;-81
2022/05/27 08:08:25;;;;;;;0.30;0.30;;;18.20;99.90;;;;;;5035959;28;20241;-81
2022/05/27 08:10:50;;;;;;;0.10;0.10;;;18.20;99.90;;;;;;5036169;28;20217;-79
2022/05/27 08:13:16;;;;;;;0.10;0.10;;;18.20;99.90;;;;;;5053579;28;20200;-81
2022/05/27 08:15:42;;;;;;;0.23;0.23;;;18.40;99.90;;;;;;5055363;28;20695;-81
2022/05/27 08:18:09;;;;;;;0.20;0.20;;;18.50;99.90;;;;;;5034935;28;20212;-81
2022/05/27 08:20:37;;;;;;;0.20;0.20;;;18.50;99.90;;;;;;5035590;28;20193;-81
2022/05/27 08:23:03;;;;;;;0.10;0.10;;;18.60;99.90;;;;;;5036367;28;20757;-82
2022/05/27 08:25:35;;;;;;;0.57;0.30;;;18.90;99.90;;;;;;5037162;28;20192;-81
2022/05/27 08:28:00;;;;;;;0.10;0.10;;;19.10;99.90;;;;;;5053161;28;20197;-81
2022/05/27 08:30:30;;;;;;;0.33;0.20;;;19.20;99.90;;;;;;5033435;28;20276;-81
2022/05/27 08:32:56;;;;;;;0.40;0.40;;;19.20;99.90;;;;;;5035680;28;20185;-79
2022/05/27 08:38:11;;;;;;;1.67;0.40;;;19.10;99.90;;;;;;5057693;28;20216;-80
2022/05/27 08:41:03;;;;;;;0.20;0.20;;;19.10;99.90;;;;;;5041070;28;20851;-81
2022/05/27 08:43:50;;;;;;;0.37;0.37;;;18.80;99.90;;;;;;5040124;28;20198;-81
2022/05/27 08:46:41;;;;;;;0.20;0.20;;;18.60;99.90;;;;;;5060041;28;20181;-81
2022/05/27 08:49:17;;;;;;;0.10;0.10;;;18.70;99.90;;;;;;5057837;28;20209;-81
2022/05/27 08:51:58;;;;;;;0.10;0.10;;;18.70;99.90;;;;;;5039308;28;20187;-81
2022/05/27 08:54:30;;;;;;;0.30;0.30;;;19.00;99.90;;;;;;5034739;28;20211;-84
2022/05/27 09:00:04;;;;;;;0.30;0.30;;;18.60;99.90;;;;;;5054663;28;20184;-84
2022/05/27 09:02:55;;;;;;;0.20;0.20;;;18.60;99.90;;;;;;5037959;28;20186;-81
2022/05/27 09:05:28;;;;;;;0.17;0.17;;;18.70;99.90;;;;;;5056442;28;20185;-80
2022/05/27 09:08:01;;;;;;;0.50;0.27;;;18.70;99.90;;;;;;5074303;28;20283;-81
2022/05/27 09:10:51;;;;;;;0.20;0.20;;;18.80;99.90;;;;;;5039228;28;20248;-81
2022/05/27 09:13:34;;;;;;;0.10;0.10;;;18.80;99.90;;;;;;5041412;28;20189;-81
2022/05/27 09:16:22;;;;;;;0.10;0.10;;;18.80;99.90;;;;;;5058489;28;20174;-81
2022/05/27 09:18:58;;;;;;;0.20;0.20;;;19.00;99.90;;;;;;5054302;28;20208;-80
2022/05/27 09:21:58;;;;;;;0.20;0.20;;;19.20;99.90;;;;;;5054568;28;20682;-81
2022/05/27 09:24:48;;;;;;;0.20;0.20;;;19.20;99.90;;;;;;5058534;28;20206;-82
2022/05/27 09:27:16;;;;;;;0.10;0.10;;;19.20;99.90;;;;;;5033254;28;20734;-80
2022/05/27 09:29:45;;;;;;;0.57;0.20;;;19.20;99.90;;;;;;5038079;28;20177;-80
2022/05/27 09:32:26;;;;;;;0.20;0.20;;;19.40;99.90;;;;;;5039136;28;20323;-81
2022/05/27 09:34:55;;;;;;;0.50;0.50;;;19.50;99.90;;;;;;5054137;28;20210;-82
2022/05/27 09:37:33;;;;;;;0.20;0.20;;;19.80;99.90;;;;;;5038197;28;20198;-82
2022/05/27 09:40:06;;;;;;;0.20;0.17;;;19.60;99.90;;;;;;5037596;28;20181;-81
2022/05/27 09:42:43;;;;;;;0.20;0.20;;;19.70;99.90;;;;;;5036053;28;20186;-82
2022/05/27 09:45:09;;;;;;;0.10;0.10;;;19.70;99.90;;;;;;5037646;28;20268;-81
2022/05/27 09:47:35;;;;;;;0.20;0.20;;;19.80;99.90;;;;;;5037986;28;20224;-81
2022/05/27 09:50:22;;;;;;;0.10;0.10;;;19.70;99.90;;;;;;5038270;28;20209;-81
2022/05/27 09:52:50;;;;;;;0.10;0.10;;;19.90;99.90;;;;;;5038605;28;20549;-81
2022/05/27 09:55:25;;;;;;;0.33;0.33;;;20.10;99.90;;;;;;5056864;28;20235;-81
2022/05/27 09:58:00;;;;;;;0.10;0.10;;;20.20;99.90;;;;;;5037066;28;20202;-82
2022/05/27 10:00:49;;;;;;;0.30;0.30;;;20.30;99.90;;;;;;5056496;28;20183;-81
2022/05/27 10:03:26;;;;;;;0.10;0.10;;;20.40;99.90;;;;;;5055258;28;20197;-81
2022/05/27 10:06:15;;;;;;;0.30;0.30;;;20.40;99.90;;;;;;5057434;28;20192;-81
2022/05/27 10:08:59;;;;;;;0.20;0.20;;;20.50;99.90;;;;;;5058184;28;20215;-81
2022/05/27 10:11:25;;;;;;;0.20;0.20;;;20.30;99.90;;;;;;5058703;28;20234;-80
2022/05/27 10:14:06;;;;;;;0.10;0.10;;;20.30;99.90;;;;;;5033350;28;20203;-81
2022/05/27 10:16:33;;;;;;;0.10;0.10;;;20.50;99.90;;;;;;5037013;28;20811;-82
2022/05/27 10:19:14;;;;;;;0.20;0.20;;;20.40;99.90;;;;;;5037765;28;20626;-81
2022/05/27 10:21:58;;;;;;;0.20;0.20;;;20.30;99.90;;;;;;5039529;28;20181;-82
2022/05/27 10:24:28;;;;;;;0.27;0.27;;;20.30;99.90;;;;;;5038486;28;20203;-81
2022/05/27 10:27:13;;;;;;;0.23;0.23;;;20.30;99.90;;;;;;5037106;28;20179;-81
2022/05/27 10:29:57;;;;;;;0.10;0.10;;;20.30;99.90;;;;;;5038106;28;20177;-82
2022/05/27 10:32:38;;;;;;;0.20;0.20;;;20.20;99.90;;;;;;5053973;28;20182;-81
2022/05/27 10:35:07;;;;;;;0.10;0.10;;;20.40;99.90;;;;;;5056322;28;20174;-81
2022/05/27 10:38:10;;;;;;;0.10;0.10;;;20.60;99.90;;;;;;5038487;28;20201;-81
2022/05/27 10:40:45;;;;;;;0.23;0.20;;;20.40;99.90;;;;;;5056362;28;20174;-81
2022/05/27 10:43:29;;;;;;;0.10;0.10;;;20.40;99.90;;;;;;5055503;28;20307;-82
2022/05/27 10:46:00;;;;;;;0.10;0.10;;;20.40;99.90;;;;;;5056544;28;20197;-81
2022/05/27 10:48:56;;;;;;;0.20;0.20;;;20.50;99.90;;;;;;5041054;28;20340;-81
2022/05/27 10:51:42;;;;;;;0.10;0.10;;;20.50;99.90;;;;;;5035125;28;20193;-81
2022/05/27 10:54:35;;;;;;;0.17;0.17;;;20.70;99.90;;;;;;5055186;28;20705;-81
2022/05/27 11:03:24;;;;;;;0.13;0.13;;;21.40;99.90;;;;;;5058072;28;20204;-82
2022/05/27 11:06:19;;;;;;;0.20;0.20;;;21.30;99.90;;;;;;5025572;28;20197;-82
2022/05/27 11:09:05;;;;;;;0.10;0.10;;;21.10;99.90;;;;;;5054760;28;20225;-82
2022/05/27 11:11:49;;;;;;;0.10;0.10;;;21.10;99.90;;;;;;5055517;28;20204;-81
2022/05/27 11:17:23;;;;;;;0.13;0.13;;;21.00;99.90;;;;;;5058145;28;20249;-82
2022/05/27 11:19:48;;;;;;;0.10;0.10;;;21.40;99.90;;;;;;5057926;28;20189;-82
2022/05/27 11:22:31;;;;;;;0.10;0.10;;;21.60;99.90;;;;;;5057551;28;20189;-82
2022/05/27 11:25:11;;;;;;;0.13;0.13;;;21.80;99.90;;;;;;5054293;28;20201;-81
2022/05/27 11:28:09;;;;;;;0.10;0.10;;;21.50;99.90;;;;;;5057816;28;21235;-82
2022/05/27 11:31:15;;;;;;;0.27;0.20;;;21.30;99.90;;;;;;5058003;28;20335;-82
2022/05/27 11:34:08;;;;;;;0.17;0.17;;;21.10;99.90;;;;;;5056684;28;20261;-82
2022/05/27 11:36:49;;;;;;;0.10;0.10;;;20.90;99.90;;;;;;5036975;28;20200;-82
2022/05/27 11:39:51;;;;;;;0.10;0.10;;;20.60;99.90;;;;;;5038888;28;20253;-82
2022/05/27 11:43:01;;;;;;;0.10;0.10;;;20.40;99.90;;;;;;5031451;28;20283;-84
2022/05/27 11:45:30;;;;;;;0.20;0.20;;;19.80;99.90;;;;;;5025887;28;20216;-82
2022/05/27 11:48:01;;;;;;;0.20;0.20;;;19.10;99.90;;;;;;5040817;28;20227;-81
2022/05/27 11:50:51;;;;;;;0.10;0.10;;;18.40;99.90;;;;;;5054005;28;20185;-81
2022/05/27 11:53:45;;;;;;;0.10;0.10;;;18.40;99.90;;;;;;5041503;28;20669;-81
2022/05/27 11:56:22;;;;;;;0.10;0.10;;;18.40;99.90;;;;;;5059835;28;20250;-81
2022/05/27 11:58:52;;;;;;;0.20;0.20;;;18.60;99.90;;;;;;5058118;28;20213;-81
2022/05/27 12:01:40;;;;;;;0.10;0.10;;;19.10;99.90;;;;;;5041566;28;20193;-81
2022/05/27 12:04:24;;;;;;;0.10;0.10;;;19.40;99.90;;;;;;5056242;28;20520;-82
2022/05/27 12:07:14;;;;;;;0.17;0.17;;;19.80;99.90;;;;;;5038454;28;20678;-82
2022/05/27 12:10:17;;;;;;;0.20;0.20;;;18.40;99.90;;;;;;5038531;28;20598;-82
2022/05/27 12:12:55;;;;;;;0.20;0.20;;;18.10;99.90;;;;;;5058581;28;20187;-81
2022/05/27 12:15:52;;;;;;;0.20;0.20;;;18.10;99.90;;;;;;5059600;28;20217;-82
2022/05/27 12:18:31;;;;;;;0.20;0.20;;;17.40;99.90;;;;;;5060526;28;20217;-81
2022/05/27 12:20:57;;;;;;;0.10;0.10;;;17.70;99.90;;;;;;5040987;28;20200;-82
2022/05/27 12:23:27;;;;;;;0.10;0.10;;;18.00;99.90;;;;;;5060948;28;21120;-82
2022/05/27 12:25:56;;;;;;;0.20;0.17;;;18.40;99.90;;;;;;5040559;28;20189;-81
2022/05/27 12:28:30;;;;;;;0.20;0.20;;;18.80;99.90;;;;;;5041715;28;20280;-82
2022/05/27 12:30:58;;;;;;;0.17;0.17;;;19.10;99.90;;;;;;5043897;28;20188;-82
2022/05/27 12:33:26;;;;;;;0.13;0.13;;;19.30;99.90;;;;;;5057591;28;20190;-81
2022/05/27 12:36:18;;;;;;;0.20;0.20;;;19.60;99.90;;;;;;5060798;28;21903;-82
2022/05/27 12:38:49;;;;;;;0.10;0.10;;;19.80;99.90;;;;;;5056886;28;20210;-82
2022/05/27 12:41:37;;;;;;;0.23;0.23;;;19.90;99.90;;;;;;5058219;28;20188;-82
2022/05/27 12:44:24;;;;;;;0.10;0.10;;;20.10;99.90;;;;;;5039768;28;20210;-79
2022/05/27 12:46:57;;;;;;;0.30;0.27;;;20.20;99.90;;;;;;5054248;28;20212;-80
2022/05/27 12:49:37;;;;;;;0.20;0.20;;;20.20;99.90;;;;;;5055778;28;20216;-80
2022/05/27 12:52:27;;;;;;;0.30;0.20;;;20.10;99.90;;;;;;5053195;28;20186;-81
2022/05/27 12:54:53;;;;;;;1.60;0.50;;;19.90;99.90;;;;;;5054626;28;20203;-81
2022/05/27 13:00:57;;;;;;;0.77;0.30;;;19.50;99.90;;;;;;5059769;28;20266;-81
2022/05/27 13:03:38;;;;;;;0.30;0.30;;;19.70;99.90;;;;;;5043945;28;20203;-82
2022/05/27 13:06:14;;;;;;;0.47;0.47;;;20.00;99.90;;;;;;5063884;28;20582;-82
2022/05/27 13:09:03;;;;;;;0.57;0.57;;;20.30;99.90;;;;;;5061257;28;20265;-81
2022/05/27 13:11:36;;;;;;;0.20;0.20;;;20.70;99.90;;;;;;5061001;28;20182;-82
2022/05/27 13:14:05;;;;;;;0.43;0.43;;;20.90;99.90;;;;;;5045516;28;20249;-82
2022/05/27 13:17:14;;;;;;;0.27;0.27;;;21.10;99.90;;;;;;5064992;28;20195;-82
2022/05/27 13:19:57;;;;;;;0.40;0.40;;;21.30;99.90;;;;;;5030733;28;20207;-82
2022/05/27 13:22:49;;;;;;;0.20;0.20;;;21.30;99.90;;;;;;5042976;28;20212;-81
2022/05/27 13:25:39;;;;;;;0.40;0.40;;;20.70;99.90;;;;;;5063697;28;20655;-82
2022/05/27 13:28:10;;;;;;;0.30;0.30;;;20.80;99.90;;;;;;5045334;28;20710;-82
2022/05/27 13:30:49;;;;;;;0.33;0.33;;;20.90;99.90;;;;;;5044560;28;20223;-82
2022/05/27 13:33:17;;;;;;;0.30;0.30;;;21.00;99.90;;;;;;5045430;28;20192;-82
2022/05/27 13:35:46;;;;;;;0.63;0.63;;;21.10;99.90;;;;;;5058833;28;20524;-82
2022/05/27 13:38:21;;;;;;;0.60;0.60;;;21.10;99.90;;;;;;5043619;28;20571;-82
2022/05/27 13:40:48;;;;;;;0.30;0.30;;;21.00;99.90;;;;;;5043783;28;20189;-81
2022/05/27 13:43:20;;;;;;;0.30;0.30;;;21.20;99.90;;;;;;5062576;28;20215;-82
2022/05/27 13:45:58;;;;;;;0.30;0.30;;;21.10;99.90;;;;;;5062295;28;20302;-81
2022/05/27 13:48:28;;;;;;;0.10;0.10;;;21.20;99.90;;;;;;5044635;28;21038;-82
2022/05/27 13:51:08;;;;;;;0.33;0.33;;;21.30;99.90;;;;;;5061306;28;20187;-82
2022/05/27 13:53:35;;;;;;;0.30;0.30;;;21.30;99.90;;;;;;5042539;28;20185;-81
2022/05/27 13:56:21;;;;;;;0.30;0.30;;;21.30;99.90;;;;;;5037458;28;20189;-80